Time;durP1;ratioP1;P1;durP2;ratioP2;P2;SDS_P1;SDS_P2;PMS_P1;PMS_P2;Temp;Humidity;BMP_temperature;BMP_pressure;BME280_temperature;BME280_humidity;BME280_pressure;Samples;Min_cycle;Max_cycle;Signal;HPM_P1;HPM_P2
2023/12/12 00:00:13;;;;;;;16.77;3.53;;;;;;;;;;469967;28;1172;-73
2023/12/12 00:00:30;;;;;;;16.73;3.60;;;;;;;;;;469974;28;1042;-72
2023/12/12 00:00:45;;;;;;;15.88;3.63;;;;;;;;;;470162;28;1204;-72
2023/12/12 00:01:00;;;;;;;14.37;3.37;;;;;;;;;;471246;28;854;-72
2023/12/12 00:01:22;;;;;;;14.37;3.17;;;;;;;;;;472570;28;1231;-73
2023/12/12 00:01:37;;;;;;;16.33;3.33;;;;;;;;;;470584;28;1012;-73
2023/12/12 00:01:53;;;;;;;16.27;3.40;;;;;;;;;;471528;28;1559;-72
2023/12/12 00:02:09;;;;;;;16.30;3.85;;;;;;;;;;471095;28;898;-72
2023/12/12 00:02:25;;;;;;;17.07;3.77;;;;;;;;;;471297;28;1116;-72
2023/12/12 00:02:40;;;;;;;15.25;3.42;;;;;;;;;;471536;28;1051;-72
2023/12/12 00:02:56;;;;;;;15.07;3.60;;;;;;;;;;470913;28;2219;-73
2023/12/12 00:03:11;;;;;;;17.45;3.72;;;;;;;;;;470826;28;1160;-72
2023/12/12 00:03:27;;;;;;;17.70;3.65;;;;;;;;;;469630;28;1036;-73
2023/12/12 00:03:42;;;;;;;17.43;3.63;;;;;;;;;;471405;28;1245;-72
2023/12/12 00:03:57;;;;;;;15.70;3.37;;;;;;;;;;471958;28;1014;-73
2023/12/12 00:04:12;;;;;;;14.87;3.33;;;;;;;;;;470572;28;862;-72
2023/12/12 00:04:28;;;;;;;15.20;3.58;;;;;;;;;;472241;28;906;-73
2023/12/12 00:04:43;;;;;;;14.07;3.67;;;;;;;;;;471191;28;905;-73
2023/12/12 00:04:59;;;;;;;15.00;3.43;;;;;;;;;;470466;28;1215;-72
2023/12/12 00:05:14;;;;;;;15.02;3.30;;;;;;;;;;471129;28;1341;-73
2023/12/12 00:05:29;;;;;;;14.70;3.70;;;;;;;;;;470401;28;1319;-72
2023/12/12 00:05:44;;;;;;;16.13;3.63;;;;;;;;;;472918;28;1021;-72
2023/12/12 00:06:00;;;;;;;15.20;3.20;;;;;;;;;;471881;28;1226;-72
2023/12/12 00:06:16;;;;;;;13.50;3.27;;;;;;;;;;471518;28;926;-72
2023/12/12 00:06:32;;;;;;;14.57;3.40;;;;;;;;;;469177;28;1210;-73
2023/12/12 00:06:47;;;;;;;15.93;3.17;;;;;;;;;;468169;28;1242;-72
2023/12/12 00:07:03;;;;;;;16.23;3.38;;;;;;;;;;468147;28;1165;-72
2023/12/12 00:07:18;;;;;;;15.30;3.43;;;;;;;;;;468511;28;1060;-72
2023/12/12 00:07:33;;;;;;;15.37;3.60;;;;;;;;;;469645;28;952;-72
2023/12/12 00:07:49;;;;;;;17.77;3.67;;;;;;;;;;469363;28;1200;-72
2023/12/12 00:08:04;;;;;;;15.90;3.30;;;;;;;;;;470160;28;1056;-72
2023/12/12 00:08:19;;;;;;;15.38;3.38;;;;;;;;;;470350;28;1050;-72
2023/12/12 00:08:35;;;;;;;17.07;3.70;;;;;;;;;;470819;28;943;-72
2023/12/12 00:08:50;;;;;;;15.63;3.53;;;;;;;;;;471582;28;1149;-72
2023/12/12 00:09:05;;;;;;;15.27;3.27;;;;;;;;;;472237;28;1262;-72
2023/12/12 00:09:21;;;;;;;15.75;3.33;;;;;;;;;;472383;28;973;-72
2023/12/12 00:09:36;;;;;;;15.43;3.50;;;;;;;;;;470579;28;1153;-72
2023/12/12 00:09:51;;;;;;;16.40;3.40;;;;;;;;;;469906;28;1254;-72
2023/12/12 00:10:07;;;;;;;14.85;3.25;;;;;;;;;;471912;28;909;-72
2023/12/12 00:10:22;;;;;;;12.67;3.20;;;;;;;;;;472454;28;986;-73
2023/12/12 00:10:38;;;;;;;14.27;3.28;;;;;;;;;;472900;28;906;-73
2023/12/12 00:10:53;;;;;;;14.60;3.37;;;;;;;;;;470543;28;1330;-72
2023/12/12 00:11:08;;;;;;;15.77;3.65;;;;;;;;;;471482;28;1046;-73
2023/12/12 00:11:24;;;;;;;17.77;3.60;;;;;;;;;;472314;28;1141;-72
2023/12/12 00:11:39;;;;;;;16.33;3.30;;;;;;;;;;472003;28;913;-72
2023/12/12 00:11:55;;;;;;;15.45;3.33;;;;;;;;;;469734;28;1218;-73
2023/12/12 00:12:10;;;;;;;17.10;3.63;;;;;;;;;;468012;28;1330;-72
2023/12/12 00:12:25;;;;;;;17.60;3.73;;;;;;;;;;467876;28;1463;-73
2023/12/12 00:12:41;;;;;;;16.85;3.55;;;;;;;;;;466672;28;1356;-72
2023/12/12 00:12:56;;;;;;;16.50;3.60;;;;;;;;;;467562;28;1326;-72
2023/12/12 00:13:11;;;;;;;15.38;3.50;;;;;;;;;;468832;28;1137;-72
2023/12/12 00:13:27;;;;;;;15.73;3.43;;;;;;;;;;468446;28;1270;-72
2023/12/12 00:13:42;;;;;;;16.90;3.60;;;;;;;;;;468478;28;1093;-72
2023/12/12 00:13:57;;;;;;;16.83;3.60;;;;;;;;;;469380;28;1147;-73
2023/12/12 00:14:12;;;;;;;16.42;3.40;;;;;;;;;;468149;28;1962;-72
2023/12/12 00:14:28;;;;;;;19.00;3.67;;;;;;;;;;468473;28;1469;-72
2023/12/12 00:14:43;;;;;;;19.27;3.87;;;;;;;;;;466797;28;1175;-72
2023/12/12 00:14:58;;;;;;;17.13;3.67;;;;;;;;;;469670;28;1203;-72
2023/12/12 00:15:14;;;;;;;16.63;3.57;;;;;;;;;;469757;28;1209;-72
2023/12/12 00:15:29;;;;;;;15.43;3.53;;;;;;;;;;469583;28;1026;-73
2023/12/12 00:15:44;;;;;;;13.93;3.47;;;;;;;;;;468596;28;1115;-72
2023/12/12 00:16:00;;;;;;;13.73;3.40;;;;;;;;;;466906;28;1086;-72
2023/12/12 00:16:15;;;;;;;16.33;3.60;;;;;;;;;;467542;28;1144;-73
2023/12/12 00:16:31;;;;;;;16.60;3.58;;;;;;;;;;469685;28;1035;-73
2023/12/12 00:16:46;;;;;;;16.83;3.60;;;;;;;;;;471411;28;1176;-73
2023/12/12 00:17:02;;;;;;;16.85;3.50;;;;;;;;;;471744;28;1341;-73
2023/12/12 00:17:17;;;;;;;15.07;3.43;;;;;;;;;;470844;28;854;-72
2023/12/12 00:17:32;;;;;;;15.80;3.78;;;;;;;;;;471870;28;1120;-73
2023/12/12 00:17:48;;;;;;;16.40;3.53;;;;;;;;;;473845;28;1171;-73
2023/12/12 00:18:03;;;;;;;17.90;3.83;;;;;;;;;;473680;28;1075;-72
2023/12/12 00:18:18;;;;;;;18.58;4.10;;;;;;;;;;472025;28;1254;-72
2023/12/12 00:18:34;;;;;;;15.73;3.80;;;;;;;;;;471610;28;1196;-72
2023/12/12 00:18:50;;;;;;;13.93;3.60;;;;;;;;;;472062;28;1293;-72
2023/12/12 00:19:05;;;;;;;15.17;3.53;;;;;;;;;;468647;28;1097;-73
2023/12/12 00:19:20;;;;;;;17.70;3.70;;;;;;;;;;468937;28;971;-72
2023/12/12 00:19:40;;;;;;;17.23;3.63;;;;;;;;;;470749;28;1200;-73
2023/12/12 00:19:56;;;;;;;14.85;3.50;;;;;;;;;;472022;28;1510;-72
2023/12/12 00:20:11;;;;;;;17.60;3.67;;;;;;;;;;470580;28;1084;-72
2023/12/12 00:20:27;;;;;;;16.97;3.60;;;;;;;;;;471817;28;907;-73
2023/12/12 00:20:42;;;;;;;15.63;3.50;;;;;;;;;;469275;28;990;-72
2023/12/12 00:20:57;;;;;;;16.33;3.30;;;;;;;;;;468391;28;1035;-73
2023/12/12 00:21:13;;;;;;;16.10;3.40;;;;;;;;;;468715;28;1190;-73
2023/12/12 00:21:28;;;;;;;15.23;3.75;;;;;;;;;;468959;28;1172;-72
2023/12/12 00:21:44;;;;;;;14.57;3.80;;;;;;;;;;470045;28;974;-72
2023/12/12 00:21:59;;;;;;;15.97;3.83;;;;;;;;;;470308;28;977;-73
2023/12/12 00:22:14;;;;;;;16.80;4.00;;;;;;;;;;470632;28;1299;-73
2023/12/12 00:22:30;;;;;;;16.13;3.90;;;;;;;;;;470640;28;942;-72
2023/12/12 00:22:45;;;;;;;16.23;3.73;;;;;;;;;;468588;28;1208;-72
2023/12/12 00:23:00;;;;;;;16.10;3.75;;;;;;;;;;470756;28;1106;-73
2023/12/12 00:23:16;;;;;;;15.43;3.63;;;;;;;;;;469528;28;1437;-72
2023/12/12 00:23:31;;;;;;;15.20;3.42;;;;;;;;;;468785;28;1155;-73
2023/12/12 00:23:47;;;;;;;19.00;3.77;;;;;;;;;;467168;28;1200;-72
2023/12/12 00:24:02;;;;;;;20.73;4.20;;;;;;;;;;466391;28;1130;-72
2023/12/12 00:24:17;;;;;;;17.75;3.95;;;;;;;;;;467022;28;1205;-73
2023/12/12 00:24:33;;;;;;;14.47;3.47;;;;;;;;;;467196;28;1214;-72
2023/12/12 00:24:48;;;;;;;15.75;3.42;;;;;;;;;;466549;28;1085;-72
2023/12/12 00:25:04;;;;;;;16.83;3.47;;;;;;;;;;467752;28;1018;-72
2023/12/12 00:25:19;;;;;;;13.70;3.30;;;;;;;;;;468366;28;921;-73
2023/12/12 00:25:34;;;;;;;15.20;3.30;;;;;;;;;;469309;28;1101;-73
2023/12/12 00:25:50;;;;;;;15.73;3.20;;;;;;;;;;471965;28;921;-73
2023/12/12 00:26:07;;;;;;;15.02;3.30;;;;;;;;;;472951;28;961;-72
2023/12/12 00:26:22;;;;;;;16.52;3.63;;;;;;;;;;473847;28;1077;-72
2023/12/12 00:26:38;;;;;;;16.20;3.60;;;;;;;;;;473351;28;901;-73
2023/12/12 00:26:53;;;;;;;13.57;3.58;;;;;;;;;;473911;27;1095;-73
2023/12/12 00:27:08;;;;;;;15.37;3.77;;;;;;;;;;473735;28;1056;-73
2023/12/12 00:27:24;;;;;;;17.77;3.77;;;;;;;;;;471467;28;1104;-73
2023/12/12 00:27:39;;;;;;;17.83;3.85;;;;;;;;;;471412;28;917;-73
2023/12/12 00:27:55;;;;;;;15.50;3.77;;;;;;;;;;470628;28;1243;-73
2023/12/12 00:28:10;;;;;;;14.93;3.70;;;;;;;;;;470202;28;868;-72
2023/12/12 00:28:25;;;;;;;16.33;3.70;;;;;;;;;;469458;28;1180;-72
2023/12/12 00:28:41;;;;;;;16.23;3.70;;;;;;;;;;467869;28;1043;-72
2023/12/12 00:28:56;;;;;;;15.40;3.47;;;;;;;;;;467068;28;1259;-72
2023/12/12 00:29:11;;;;;;;15.83;3.47;;;;;;;;;;469623;28;1079;-73
2023/12/12 00:29:27;;;;;;;16.50;3.60;;;;;;;;;;469157;28;1128;-72
2023/12/12 00:29:42;;;;;;;16.88;3.60;;;;;;;;;;469522;28;1045;-72
2023/12/12 00:29:57;;;;;;;17.60;3.67;;;;;;;;;;468782;28;1038;-72
2023/12/12 00:30:13;;;;;;;18.13;3.67;;;;;;;;;;468192;28;1494;-73
2023/12/12 00:30:28;;;;;;;18.15;3.50;;;;;;;;;;468390;28;1019;-72
2023/12/12 00:30:44;;;;;;;17.03;3.50;;;;;;;;;;468713;28;969;-72
2023/12/12 00:31:00;;;;;;;16.30;3.78;;;;;;;;;;468937;28;1088;-73
2023/12/12 00:31:15;;;;;;;15.98;3.72;;;;;;;;;;469845;28;1033;-73
2023/12/12 00:31:30;;;;;;;16.67;3.63;;;;;;;;;;469542;28;938;-73
2023/12/12 00:31:46;;;;;;;17.53;3.80;;;;;;;;;;471218;28;1466;-72
2023/12/12 00:32:02;;;;;;;17.65;3.92;;;;;;;;;;471691;28;1265;-72
2023/12/12 00:32:17;;;;;;;14.80;3.58;;;;;;;;;;473366;28;1178;-72
2023/12/12 00:32:34;;;;;;;15.05;3.40;;;;;;;;;;470854;28;1201;-72
2023/12/12 00:32:49;;;;;;;15.93;3.60;;;;;;;;;;471884;28;968;-73
2023/12/12 00:33:04;;;;;;;15.80;3.63;;;;;;;;;;471569;28;1058;-73
2023/12/12 00:33:19;;;;;;;18.43;3.83;;;;;;;;;;470335;28;1045;-73
2023/12/12 00:33:35;;;;;;;18.40;4.00;;;;;;;;;;469646;28;1130;-73
2023/12/12 00:33:50;;;;;;;17.60;3.83;;;;;;;;;;468313;28;1056;-73
2023/12/12 00:34:05;;;;;;;18.03;3.80;;;;;;;;;;467551;28;908;-72
2023/12/12 00:34:21;;;;;;;16.95;3.80;;;;;;;;;;467775;28;1967;-73
2023/12/12 00:34:37;;;;;;;14.67;3.63;;;;;;;;;;469237;28;1187;-72
2023/12/12 00:34:52;;;;;;;16.00;3.90;;;;;;;;;;470178;28;910;-73
2023/12/12 00:35:08;;;;;;;17.27;3.92;;;;;;;;;;471565;28;1144;-72
2023/12/12 00:35:23;;;;;;;15.23;3.87;;;;;;;;;;471382;28;1036;-73
2023/12/12 00:35:38;;;;;;;15.10;4.07;;;;;;;;;;470709;28;1034;-72
2023/12/12 00:35:54;;;;;;;16.05;3.88;;;;;;;;;;472154;28;914;-73
2023/12/12 00:36:09;;;;;;;16.00;3.63;;;;;;;;;;472427;27;1167;-72
2023/12/12 00:36:25;;;;;;;15.55;3.55;;;;;;;;;;472136;28;1057;-72
2023/12/12 00:36:40;;;;;;;17.53;3.93;;;;;;;;;;472348;28;1099;-72
2023/12/12 00:36:55;;;;;;;16.70;3.83;;;;;;;;;;472661;28;1142;-73
2023/12/12 00:37:11;;;;;;;15.70;3.75;;;;;;;;;;472973;28;921;-72
2023/12/12 00:37:26;;;;;;;16.40;3.90;;;;;;;;;;470669;28;1064;-72
2023/12/12 00:37:41;;;;;;;16.00;3.70;;;;;;;;;;470348;28;1099;-72
2023/12/12 00:37:56;;;;;;;16.00;3.63;;;;;;;;;;470693;28;1057;-72
2023/12/12 00:38:12;;;;;;;15.63;3.65;;;;;;;;;;470499;28;1077;-72
2023/12/12 00:38:30;;;;;;;15.10;3.60;;;;;;;;;;470322;28;1281;-72
2023/12/12 00:38:45;;;;;;;15.85;3.50;;;;;;;;;;471617;28;1151;-72
2023/12/12 00:39:01;;;;;;;17.13;3.50;;;;;;;;;;470771;28;1227;-72
2023/12/12 00:39:16;;;;;;;14.80;3.37;;;;;;;;;;471548;28;912;-72
2023/12/12 00:39:36;;;;;;;16.53;3.90;;;;;;;;;;468351;28;1092;-72
2023/12/12 00:39:52;;;;;;;15.23;3.90;;;;;;;;;;468769;28;1062;-72
2023/12/12 00:40:09;;;;;;;14.67;3.73;;;;;;;;;;470161;28;1135;-72
2023/12/12 00:40:25;;;;;;;16.45;3.85;;;;;;;;;;471559;28;1067;-72
2023/12/12 00:40:40;;;;;;;15.90;3.63;;;;;;;;;;469852;28;1135;-72
2023/12/12 00:40:56;;;;;;;14.53;3.53;;;;;;;;;;471313;28;1141;-73
2023/12/12 00:41:11;;;;;;;15.15;3.72;;;;;;;;;;471073;28;1534;-72
2023/12/12 00:41:33;;;;;;;17.50;3.83;;;;;;;;;;470307;28;1147;-72
2023/12/12 00:41:48;;;;;;;16.25;3.33;;;;;;;;;;469778;28;1073;-72
2023/12/12 00:42:04;;;;;;;18.08;3.78;;;;;;;;;;469368;28;1089;-72
2023/12/12 00:42:19;;;;;;;18.85;4.18;;;;;;;;;;468486;28;1029;-72
2023/12/12 00:42:35;;;;;;;17.30;4.00;;;;;;;;;;469559;28;944;-72
2023/12/12 00:42:50;;;;;;;17.43;3.67;;;;;;;;;;469653;28;1200;-72
2023/12/12 00:43:05;;;;;;;16.53;3.57;;;;;;;;;;468612;28;1515;-72
2023/12/12 00:43:22;;;;;;;16.30;3.80;;;;;;;;;;470536;28;937;-72
2023/12/12 00:43:40;;;;;;;14.70;3.75;;;;;;;;;;469772;28;1347;-72
2023/12/12 00:43:55;;;;;;;16.90;3.92;;;;;;;;;;471286;28;1375;-72
2023/12/12 00:44:11;;;;;;;17.73;3.70;;;;;;;;;;471638;28;1153;-72
2023/12/12 00:44:26;;;;;;;17.00;3.50;;;;;;;;;;472687;28;965;-72
2023/12/12 00:44:41;;;;;;;19.50;4.00;;;;;;;;;;472092;28;1245;-72
2023/12/12 00:44:57;;;;;;;18.43;4.07;;;;;;;;;;472423;28;1066;-73
2023/12/12 00:45:12;;;;;;;16.23;3.90;;;;;;;;;;470822;28;1120;-72
2023/12/12 00:45:28;;;;;;;18.30;4.05;;;;;;;;;;471355;28;1263;-72
2023/12/12 00:45:43;;;;;;;18.53;4.00;;;;;;;;;;469899;28;1150;-72
2023/12/12 00:45:58;;;;;;;16.10;3.80;;;;;;;;;;467938;28;1140;-73
2023/12/12 00:46:13;;;;;;;16.02;3.60;;;;;;;;;;468395;28;984;-72
2023/12/12 00:46:29;;;;;;;17.27;3.70;;;;;;;;;;468365;28;1118;-72
2023/12/12 00:46:44;;;;;;;15.70;3.70;;;;;;;;;;469231;28;1064;-73
2023/12/12 00:46:59;;;;;;;15.65;3.85;;;;;;;;;;469905;28;1128;-73
2023/12/12 00:47:15;;;;;;;17.23;4.10;;;;;;;;;;471812;28;887;-72
2023/12/12 00:47:30;;;;;;;18.97;4.07;;;;;;;;;;472477;28;972;-72
2023/12/12 00:47:45;;;;;;;17.43;3.77;;;;;;;;;;474789;27;921;-72
2023/12/12 00:48:00;;;;;;;15.35;3.72;;;;;;;;;;474202;28;1019;-72
2023/12/12 00:48:19;;;;;;;14.97;3.63;;;;;;;;;;472505;28;1294;-72
2023/12/12 00:48:34;;;;;;;18.45;4.03;;;;;;;;;;469686;28;1328;-72
2023/12/12 00:48:50;;;;;;;17.03;3.83;;;;;;;;;;467806;28;1026;-72
2023/12/12 00:49:05;;;;;;;16.13;3.60;;;;;;;;;;467969;28;1144;-72
2023/12/12 00:49:20;;;;;;;17.75;3.97;;;;;;;;;;467886;28;933;-72
2023/12/12 00:49:36;;;;;;;16.67;4.00;;;;;;;;;;467709;28;1119;-73
2023/12/12 00:49:51;;;;;;;18.63;4.27;;;;;;;;;;468157;28;1144;-73
2023/12/12 00:50:07;;;;;;;18.00;4.18;;;;;;;;;;468616;28;1491;-72
2023/12/12 00:50:22;;;;;;;16.93;3.90;;;;;;;;;;467333;28;1186;-72
2023/12/12 00:50:38;;;;;;;18.30;3.92;;;;;;;;;;470341;28;1131;-72
2023/12/12 00:50:55;;;;;;;18.40;4.10;;;;;;;;;;471105;28;1160;-72
2023/12/12 00:51:10;;;;;;;17.83;4.38;;;;;;;;;;470634;28;1230;-73
2023/12/12 00:51:25;;;;;;;16.83;4.10;;;;;;;;;;470734;28;1088;-72
2023/12/12 00:51:41;;;;;;;16.37;3.77;;;;;;;;;;471133;28;1219;-72
2023/12/12 00:51:56;;;;;;;15.83;3.70;;;;;;;;;;471960;28;1130;-72
2023/12/12 00:52:11;;;;;;;18.38;4.00;;;;;;;;;;469875;28;1156;-73
2023/12/12 00:52:27;;;;;;;18.93;4.30;;;;;;;;;;468375;28;1526;-72
2023/12/12 00:52:42;;;;;;;16.98;4.20;;;;;;;;;;469003;28;1257;-72
2023/12/12 00:52:58;;;;;;;18.37;4.13;;;;;;;;;;469923;28;1115;-72
2023/12/12 00:53:13;;;;;;;19.90;4.00;;;;;;;;;;471743;28;865;-72
2023/12/12 00:53:28;;;;;;;18.77;3.88;;;;;;;;;;473572;28;905;-73
2023/12/12 00:53:43;;;;;;;16.93;3.90;;;;;;;;;;471494;28;1405;-72
2023/12/12 00:53:59;;;;;;;18.00;3.80;;;;;;;;;;470072;28;1079;-72
2023/12/12 00:54:14;;;;;;;20.00;3.55;;;;;;;;;;467624;28;1950;-72
2023/12/12 00:54:30;;;;;;;19.13;3.70;;;;;;;;;;467196;28;1037;-73
2023/12/12 00:54:45;;;;;;;17.37;3.63;;;;;;;;;;467578;28;1177;-72
2023/12/12 00:55:00;;;;;;;17.73;3.70;;;;;;;;;;469525;28;1070;-72
2023/12/12 00:55:16;;;;;;;17.20;4.07;;;;;;;;;;469032;28;1135;-72
2023/12/12 00:55:31;;;;;;;18.00;4.35;;;;;;;;;;467238;28;1156;-72
2023/12/12 00:55:46;;;;;;;19.30;4.10;;;;;;;;;;468141;28;1415;-73
2023/12/12 00:56:03;;;;;;;17.60;4.00;;;;;;;;;;469661;28;874;-72
2023/12/12 00:56:18;;;;;;;17.35;4.25;;;;;;;;;;469996;28;1200;-72
2023/12/12 00:56:33;;;;;;;19.07;4.07;;;;;;;;;;469516;28;1069;-72
2023/12/12 00:56:49;;;;;;;19.27;3.80;;;;;;;;;;469527;28;1179;-73
2023/12/12 00:57:04;;;;;;;17.90;3.78;;;;;;;;;;467325;28;1188;-73
2023/12/12 00:57:21;;;;;;;18.90;3.93;;;;;;;;;;468991;28;1136;-72
2023/12/12 00:57:36;;;;;;;18.23;3.88;;;;;;;;;;468712;28;905;-73
2023/12/12 00:57:52;;;;;;;16.47;3.80;;;;;;;;;;470010;28;1137;-72
2023/12/12 00:58:07;;;;;;;17.27;3.90;;;;;;;;;;469469;28;1282;-72
2023/12/12 00:58:22;;;;;;;18.10;3.95;;;;;;;;;;469181;28;1071;-73
2023/12/12 00:58:38;;;;;;;17.90;3.90;;;;;;;;;;471534;28;1452;-72
2023/12/12 00:58:53;;;;;;;16.73;3.88;;;;;;;;;;471445;28;864;-72
2023/12/12 00:59:09;;;;;;;16.73;3.93;;;;;;;;;;468993;28;1043;-73
2023/12/12 00:59:24;;;;;;;18.40;3.97;;;;;;;;;;471343;28;1138;-72
2023/12/12 00:59:39;;;;;;;19.80;4.10;;;;;;;;;;469740;28;1124;-72
2023/12/12 00:59:55;;;;;;;18.50;3.87;;;;;;;;;;473702;28;2304;-72
2023/12/12 01:00:10;;;;;;;17.80;3.50;;;;;;;;;;473236;28;1025;-73
2023/12/12 01:00:26;;;;;;;19.07;3.90;;;;;;;;;;473696;27;901;-72
2023/12/12 01:00:41;;;;;;;18.60;4.10;;;;;;;;;;475111;27;1218;-72
2023/12/12 01:00:56;;;;;;;18.27;4.17;;;;;;;;;;473410;28;1174;-72
2023/12/12 01:01:15;;;;;;;17.73;3.93;;;;;;;;;;471036;28;1136;-72
2023/12/12 01:01:30;;;;;;;16.83;3.70;;;;;;;;;;471408;28;1261;-72
2023/12/12 01:01:46;;;;;;;18.23;4.00;;;;;;;;;;473993;28;1125;-72
2023/12/12 01:02:01;;;;;;;17.48;4.05;;;;;;;;;;473303;28;910;-72
2023/12/12 01:02:16;;;;;;;18.67;4.13;;;;;;;;;;473197;28;1065;-72
2023/12/12 01:02:31;;;;;;;20.03;4.00;;;;;;;;;;471502;28;1041;-72
2023/12/12 01:02:47;;;;;;;18.20;3.97;;;;;;;;;;471989;28;862;-72
2023/12/12 01:03:02;;;;;;;16.05;3.90;;;;;;;;;;470338;28;1064;-72
2023/12/12 01:03:18;;;;;;;16.90;3.90;;;;;;;;;;471297;28;864;-72
2023/12/12 01:03:33;;;;;;;21.35;4.30;;;;;;;;;;469508;28;1141;-72
2023/12/12 01:03:48;;;;;;;18.97;4.13;;;;;;;;;;470454;28;1254;-73
2023/12/12 01:04:04;;;;;;;14.83;3.77;;;;;;;;;;469627;28;1036;-72
2023/12/12 01:04:19;;;;;;;19.25;4.00;;;;;;;;;;469153;28;1120;-72
2023/12/12 01:04:35;;;;;;;19.50;4.10;;;;;;;;;;471227;28;1385;-72
2023/12/12 01:04:50;;;;;;;15.30;3.72;;;;;;;;;;470940;28;1476;-72
2023/12/12 01:05:06;;;;;;;15.77;3.77;;;;;;;;;;472455;28;1167;-72
2023/12/12 01:05:21;;;;;;;17.52;3.97;;;;;;;;;;471640;28;1141;-72
2023/12/12 01:05:37;;;;;;;19.73;4.10;;;;;;;;;;471522;28;1320;-72
2023/12/12 01:05:52;;;;;;;18.80;3.85;;;;;;;;;;471825;28;999;-72
2023/12/12 01:06:07;;;;;;;16.07;3.53;;;;;;;;;;469122;28;1300;-72
2023/12/12 01:06:24;;;;;;;17.42;3.88;;;;;;;;;;468962;28;1350;-72
2023/12/12 01:06:39;;;;;;;20.30;4.15;;;;;;;;;;470071;28;1044;-72
2023/12/12 01:06:55;;;;;;;21.67;4.13;;;;;;;;;;471791;28;910;-72
2023/12/12 01:07:10;;;;;;;19.95;3.90;;;;;;;;;;470909;28;866;-73
2023/12/12 01:07:25;;;;;;;17.67;3.80;;;;;;;;;;470508;28;1377;-72
2023/12/12 01:07:41;;;;;;;14.40;3.40;;;;;;;;;;471922;28;953;-72
2023/12/12 01:07:56;;;;;;;12.95;3.45;;;;;;;;;;469945;28;1052;-72
2023/12/12 01:08:11;;;;;;;15.47;3.70;;;;;;;;;;472070;28;967;-72
2023/12/12 01:08:27;;;;;;;15.40;3.80;;;;;;;;;;471785;28;1029;-72
2023/12/12 01:08:48;;;;;;;16.40;3.90;;;;;;;;;;471574;28;1192;-72
2023/12/12 01:09:03;;;;;;;18.60;4.20;;;;;;;;;;471947;28;1120;-72
2023/12/12 01:09:19;;;;;;;21.05;4.20;;;;;;;;;;471011;28;894;-72
2023/12/12 01:09:34;;;;;;;20.20;3.90;;;;;;;;;;469050;28;1109;-72
2023/12/12 01:09:49;;;;;;;15.97;3.57;;;;;;;;;;470277;28;1084;-72
2023/12/12 01:10:05;;;;;;;17.33;3.85;;;;;;;;;;471065;28;1139;-72
2023/12/12 01:10:20;;;;;;;17.13;3.80;;;;;;;;;;470544;28;1151;-72
2023/12/12 01:10:36;;;;;;;16.70;3.78;;;;;;;;;;471647;28;935;-72
2023/12/12 01:10:51;;;;;;;15.30;3.83;;;;;;;;;;471203;28;1060;-72
2023/12/12 01:11:06;;;;;;;14.73;3.67;;;;;;;;;;470389;28;968;-72
2023/12/12 01:11:22;;;;;;;13.80;3.50;;;;;;;;;;471625;28;1000;-73
2023/12/12 01:11:37;;;;;;;13.80;3.47;;;;;;;;;;471692;28;1059;-72
2023/12/12 01:11:52;;;;;;;16.67;4.00;;;;;;;;;;468846;28;1140;-72
2023/12/12 01:12:08;;;;;;;15.02;3.72;;;;;;;;;;469994;28;929;-73
2023/12/12 01:12:25;;;;;;;14.23;3.47;;;;;;;;;;469097;28;1178;-72
2023/12/12 01:12:40;;;;;;;16.63;3.95;;;;;;;;;;469353;28;1481;-72
2023/12/12 01:12:55;;;;;;;17.70;4.00;;;;;;;;;;469011;28;1132;-72
2023/12/12 01:13:12;;;;;;;16.70;3.95;;;;;;;;;;467544;28;1152;-72
2023/12/12 01:13:32;;;;;;;15.65;3.88;;;;;;;;;;468114;28;1201;-72
2023/12/12 01:13:48;;;;;;;15.18;3.53;;;;;;;;;;467528;28;1212;-72
2023/12/12 01:14:03;;;;;;;15.13;3.40;;;;;;;;;;467225;28;1033;-72
2023/12/12 01:14:19;;;;;;;15.20;3.50;;;;;;;;;;468395;28;1973;-72
2023/12/12 01:14:35;;;;;;;16.50;3.80;;;;;;;;;;469895;28;1125;-73
2023/12/12 01:14:58;;;;;;;15.43;3.78;;;;;;;;;;468512;28;1075;-73
2023/12/12 01:15:13;;;;;;;15.40;3.60;;;;;;;;;;470656;28;1349;-73
2023/12/12 01:15:29;;;;;;;17.77;3.85;;;;;;;;;;470949;28;1164;-72
2023/12/12 01:15:44;;;;;;;16.53;4.00;;;;;;;;;;470000;28;951;-72
2023/12/12 01:15:59;;;;;;;13.30;3.70;;;;;;;;;;467652;28;1216;-72
2023/12/12 01:16:15;;;;;;;13.25;3.63;;;;;;;;;;468916;28;1040;-72
2023/12/12 01:16:30;;;;;;;15.87;3.70;;;;;;;;;;469159;28;1727;-72
2023/12/12 01:16:45;;;;;;;17.37;3.90;;;;;;;;;;469031;28;1111;-72
2023/12/12 01:17:03;;;;;;;15.60;3.70;;;;;;;;;;468726;28;1041;-72
2023/12/12 01:17:18;;;;;;;14.20;3.63;;;;;;;;;;469928;28;1333;-72
2023/12/12 01:17:34;;;;;;;17.10;3.80;;;;;;;;;;468851;28;1032;-72
2023/12/12 01:17:49;;;;;;;16.93;3.60;;;;;;;;;;467818;28;1101;-73
2023/12/12 01:18:05;;;;;;;15.60;3.65;;;;;;;;;;465618;28;1126;-72
2023/12/12 01:18:20;;;;;;;14.43;3.67;;;;;;;;;;466876;28;1482;-72
2023/12/12 01:18:35;;;;;;;14.07;3.67;;;;;;;;;;467981;28;889;-72
2023/12/12 01:18:50;;;;;;;12.98;3.55;;;;;;;;;;467164;28;929;-72
2023/12/12 01:19:06;;;;;;;13.10;3.63;;;;;;;;;;466182;28;1201;-73
2023/12/12 01:19:21;;;;;;;14.20;3.90;;;;;;;;;;465927;28;1304;-72
2023/12/12 01:19:36;;;;;;;14.30;3.90;;;;;;;;;;465442;28;1486;-72
2023/12/12 01:19:52;;;;;;;12.97;3.43;;;;;;;;;;467481;28;1149;-72
2023/12/12 01:20:08;;;;;;;13.05;3.38;;;;;;;;;;467592;28;1128;-73
2023/12/12 01:20:23;;;;;;;15.87;3.70;;;;;;;;;;470463;28;910;-72
2023/12/12 01:20:39;;;;;;;17.90;4.07;;;;;;;;;;470463;28;925;-72
2023/12/12 01:20:54;;;;;;;17.93;4.10;;;;;;;;;;471790;28;941;-72
2023/12/12 01:21:09;;;;;;;14.83;3.63;;;;;;;;;;471202;28;1206;-72
2023/12/12 01:21:25;;;;;;;13.38;3.42;;;;;;;;;;473364;28;893;-72
2023/12/12 01:21:40;;;;;;;14.03;3.23;;;;;;;;;;472062;28;1075;-72
2023/12/12 01:21:55;;;;;;;13.27;3.13;;;;;;;;;;471174;28;1052;-72
2023/12/12 01:22:11;;;;;;;14.23;3.60;;;;;;;;;;471433;28;1350;-72
2023/12/12 01:22:26;;;;;;;14.60;3.60;;;;;;;;;;472146;28;977;-72
2023/12/12 01:22:41;;;;;;;14.50;3.65;;;;;;;;;;471807;28;1097;-72
2023/12/12 01:22:57;;;;;;;13.93;3.70;;;;;;;;;;472195;28;917;-72
2023/12/12 01:23:12;;;;;;;13.17;3.43;;;;;;;;;;472042;28;1143;-72
2023/12/12 01:23:27;;;;;;;14.60;3.60;;;;;;;;;;471873;28;1038;-72
2023/12/12 01:23:53;;;;;;;16.77;4.03;;;;;;;;;;472635;28;983;-72
2023/12/12 01:24:08;;;;;;;17.25;3.60;;;;;;;;;;475768;27;1300;-72
2023/12/12 01:24:23;;;;;;;16.35;3.55;;;;;;;;;;475511;27;933;-72
2023/12/12 01:24:39;;;;;;;18.47;3.97;;;;;;;;;;475309;27;1377;-72
2023/12/12 01:24:54;;;;;;;17.23;3.90;;;;;;;;;;472789;28;1112;-72
2023/12/12 01:25:09;;;;;;;15.07;3.88;;;;;;;;;;471192;28;1135;-72
2023/12/12 01:25:24;;;;;;;15.63;3.73;;;;;;;;;;470873;28;893;-72
2023/12/12 01:25:40;;;;;;;17.43;3.87;;;;;;;;;;471388;28;1037;-72
2023/12/12 01:25:55;;;;;;;17.23;3.70;;;;;;;;;;470840;28;1273;-72
2023/12/12 01:26:11;;;;;;;15.50;3.40;;;;;;;;;;470120;28;1195;-72
2023/12/12 01:26:26;;;;;;;16.27;3.53;;;;;;;;;;471321;28;969;-72
2023/12/12 01:26:41;;;;;;;15.95;3.63;;;;;;;;;;471571;28;1019;-72
2023/12/12 01:26:57;;;;;;;15.93;3.83;;;;;;;;;;471121;28;1131;-72
2023/12/12 01:27:12;;;;;;;17.88;4.03;;;;;;;;;;472655;28;1233;-72
2023/12/12 01:27:28;;;;;;;18.43;4.27;;;;;;;;;;471215;28;977;-73
2023/12/12 01:27:44;;;;;;;17.83;4.33;;;;;;;;;;469629;28;1499;-72
2023/12/12 01:27:59;;;;;;;17.60;4.10;;;;;;;;;;467473;28;1120;-72
2023/12/12 01:28:15;;;;;;;17.20;3.67;;;;;;;;;;466664;28;1147;-72
2023/12/12 01:28:30;;;;;;;16.77;3.50;;;;;;;;;;467509;28;1012;-72
2023/12/12 01:28:46;;;;;;;18.70;3.53;;;;;;;;;;467601;28;1187;-73
2023/12/12 01:29:01;;;;;;;17.75;3.80;;;;;;;;;;469552;28;1315;-72
2023/12/12 01:29:17;;;;;;;13.90;3.77;;;;;;;;;;468372;28;1185;-72
2023/12/12 01:29:32;;;;;;;14.68;3.78;;;;;;;;;;469369;28;909;-73
2023/12/12 01:29:47;;;;;;;17.33;3.80;;;;;;;;;;471067;28;1030;-72
2023/12/12 01:30:03;;;;;;;16.20;3.40;;;;;;;;;;472585;28;913;-72
2023/12/12 01:30:18;;;;;;;15.70;3.42;;;;;;;;;;472567;28;1135;-73
2023/12/12 01:30:34;;;;;;;17.80;3.80;;;;;;;;;;472404;28;1311;-73
2023/12/12 01:30:50;;;;;;;16.02;3.50;;;;;;;;;;472689;28;1051;-72
2023/12/12 01:31:05;;;;;;;14.38;3.28;;;;;;;;;;472408;28;968;-72
2023/12/12 01:31:21;;;;;;;15.73;3.60;;;;;;;;;;472315;28;1093;-72
2023/12/12 01:31:36;;;;;;;14.87;3.80;;;;;;;;;;473363;28;1522;-73
2023/12/12 01:31:51;;;;;;;13.77;3.83;;;;;;;;;;470699;28;1222;-72
2023/12/12 01:32:07;;;;;;;15.27;3.83;;;;;;;;;;471851;28;911;-73
2023/12/12 01:32:22;;;;;;;16.73;3.83;;;;;;;;;;473809;28;1027;-72
2023/12/12 01:32:37;;;;;;;17.10;3.78;;;;;;;;;;470038;28;1326;-72
2023/12/12 01:32:53;;;;;;;15.77;3.90;;;;;;;;;;470303;28;1112;-72
2023/12/12 01:33:08;;;;;;;13.55;4.00;;;;;;;;;;470260;28;1015;-72
2023/12/12 01:33:23;;;;;;;14.47;3.80;;;;;;;;;;470410;28;1187;-72
2023/12/12 01:33:39;;;;;;;16.13;4.00;;;;;;;;;;470358;28;1138;-72
2023/12/12 01:33:54;;;;;;;17.83;4.32;;;;;;;;;;471444;28;1119;-72
2023/12/12 01:34:09;;;;;;;17.50;4.20;;;;;;;;;;470069;28;1179;-72
2023/12/12 01:34:25;;;;;;;15.80;3.80;;;;;;;;;;470949;28;1941;-73
2023/12/12 01:34:40;;;;;;;15.40;3.65;;;;;;;;;;472853;28;1051;-72
2023/12/12 01:34:55;;;;;;;13.67;3.47;;;;;;;;;;472460;28;921;-72
2023/12/12 01:35:11;;;;;;;15.53;3.70;;;;;;;;;;470230;28;1006;-72
2023/12/12 01:35:26;;;;;;;17.53;4.00;;;;;;;;;;470309;28;1018;-72